Latest Coastal Weather Observations for Strahan

IDT60701

Issued at 12:02 pm EDT Tuesday 2 March 2021 (issued every 10 minutes, with the page automatically refreshed every 10 minutes)

About coastal observations | Map of coastal stations | Coastal observations for TAS | Marine services | Other Formats
Station Details ID: 097072 Name: STRAHAN AERODROME Lat: -42.16 Lon: 145.29 Height: 21.0 m
Data from the previous 72 hours. | See also: Recent months at Strahan
Date/Time
EDT
Wind Sea
Height
m
Swell Vis
km
Cloud Weather Temp
°C
Press
MSL
hPa
Rain since
9am
mm
Dir  Spd
kts
Gust
kts
Height
m
Period
s
Dir
02/12:00pm SSW 17 25 - - - - 10 Mostly cloudy - 13.5 1017.6 0.0
02/11:35am SSW 16 26 - - - - 10 Partly cloudy - 14.6 1017.5 0.0
02/11:30am SSW 16 23 - - - - 10 Partly cloudy - 13.9 1017.5 0.0
02/11:00am SSW 15 22 - - - - 10 Partly cloudy - 11.0 1017.4 0.0
02/10:45am SSW 15 26 - - - - 10 Partly cloudy - 12.7 1017.2 0.0
02/10:30am S 15 23 - - - - 10 Partly cloudy - 12.4 1017.1 0.0
02/10:00am SSW 15 22 - - - - 10 Partly cloudy - 11.8 1017.1 0.0
02/09:30am S 10 17 - - - - 10 Partly cloudy - 11.8 1017.0 0.0
02/09:11am S 15 27 - - - - 10 Partly cloudy - 10.2 1017.0 0.0
02/09:00am S 12 21 - - - - 10 Mostly cloudy Showers 10.6 1016.8 10.6
02/08:44am S 15 25 - - - - 10 Partly cloudy - 10.6 1016.8 10.6
02/08:30am S 15 21 - - - - 10 Partly cloudy - 11.2 1016.4 10.6
02/08:00am SSW 13 21 - - - - 10 Partly cloudy - 10.4 1016.1 10.6
02/07:30am SW 14 19 - - - - 10 Partly cloudy - 9.4 1015.9 10.6
02/07:00am SSW 17 27 - - - - 10 Partly cloudy - 9.5 1015.5 10.6
02/06:32am SSW 15 25 - - - - 10 Partly cloudy - 10.1 1015.3 10.6
02/06:30am SSW 13 25 - - - - 10 Partly cloudy - 10.2 1015.3 10.6
02/06:00am SSW 13 18 - - - - 10 Cloudy Rain 10.0 1015.0 10.6
02/05:30am S 10 17 - - - - 10 Partly cloudy - 10.1 1014.8 10.6
02/05:00am SSW 15 21 - - - - 10 Partly cloudy - 10.6 1014.3 10.6
02/04:30am SSW 14 20 - - - - 10 Partly cloudy - 10.6 1014.1 10.6
02/04:00am SSW 12 15 - - - - 10 Cloudy - 10.5 1014.1 10.6
02/03:30am SSW 14 20 - - - - 10 Cloudy - 10.3 1013.9 10.6
02/03:00am S 13 18 - - - - 10 Mostly cloudy Recent precip. 10.5 1013.8 10.6
02/02:30am SSW 15 23 - - - - 10 Partly cloudy - 10.6 1013.9 10.6
02/02:00am SSW 14 21 - - - - 10 Partly cloudy - 10.8 1013.8 10.6
02/01:30am SSW 14 20 - - - - 10 Partly cloudy - 10.3 1013.8 10.6
02/01:10am SSW 15 25 - - - - 10 Partly cloudy - 10.5 1013.6 10.6
02/01:00am SSW 14 20 - - - - 10 Partly cloudy - 10.3 1013.4 10.6
02/12:30am SSW 15 20 - - - - 10 Partly cloudy - 10.5 1013.3 10.6
02/12:00am SSW 15 23 - - - - 10 Mostly cloudy Rain 10.4 1013.1 10.6
 
Date/Time
EDT
Wind Sea
Height
m
Swell Vis
km
Cloud Weather Temp
°C
Press
MSL
hPa
Rain since
9am
mm
Dir  Spd
kts
Gust
kts
Height
m
Period
s
Dir
01/11:30pm SSW 16 23 - - - - 10 Partly cloudy - 10.2 1012.8 10.6
01/11:00pm SSW 16 21 - - - - 10 Partly cloudy - 10.2 1012.7 10.4
01/10:30pm SSW 20 27 - - - - 10 Partly cloudy - 10.4 1012.5 10.4
01/10:00pm SSW 21 35 - - - - 10 Partly cloudy - 10.0 1012.1 10.4
01/09:32pm SSW 17 27 - - - - 10 Partly cloudy - 10.1 1011.8 10.4
01/09:30pm SSW 18 27 - - - - 10 Partly cloudy - 10.3 1011.7 10.4
01/09:02pm SSW 20 30 - - - - 10 Partly cloudy - 9.9 1011.1 10.4
01/09:00pm SSW 22 31 - - - - 10 Cloudy Showers 10.0 1011.1 10.2
01/08:42pm SW 20 30 - - - - 10 Partly cloudy - 10.5 1010.7 10.2
01/08:31pm SW 17 24 - - - - 10 Partly cloudy - 9.9 1010.5 10.2
01/08:30pm SW 17 27 - - - - 10 Partly cloudy - 9.7 1010.5 10.2
01/08:11pm SSW 18 36 - - - - 5 Partly cloudy - 9.4 1010.3 9.4
01/08:09pm SSW 16 36 - - - - 10 Partly cloudy - 10.3 1010.4 8.8
01/08:00pm SSW 18 26 - - - - 10 Partly cloudy - 10.4 1010.1 8.6
01/07:55pm SSW 21 31 - - - - 10 Partly cloudy - 10.7 1010.1 8.6
01/07:30pm SW 21 27 - - - - 10 Partly cloudy - 11.1 1009.7 8.6
01/07:00pm SW 19 29 - - - - 10 Partly cloudy - 11.0 1009.1 8.6
01/06:31pm SW 18 28 - - - - 10 Partly cloudy - 12.0 1008.7 8.2
01/06:30pm SW 18 26 - - - - 10 Partly cloudy - 12.2 1008.7 8.2
01/06:00pm SW 22 32 - - - - 10 Cloudy Rain 11.8 1008.4 8.2
01/05:32pm SSW 12 29 - - - - 10 Partly cloudy - 11.2 1008.0 8.2
01/05:30pm SSW 9 19 - - - - 10 Partly cloudy - 11.2 1007.9 8.2
01/05:19pm S 10 14 - - - - 10 Partly cloudy - 10.7 1007.7 8.2
01/05:02pm SSW 24 35 - - - - 4 Partly cloudy - 9.6 1008.0 7.6
01/05:00pm SSW 26 35 - - - - 5 Partly cloudy - 9.6 1007.9 7.4
01/04:58pm SSW 27 37 - - - - 5 Partly cloudy - 9.5 1007.9 7.2
01/04:56pm SSW 27 37 - - - - 6 Partly cloudy - 10.1 1007.7 7.0
01/04:48pm SW 26 37 - - - - 8 Partly cloudy - 10.6 1007.1 6.6
01/04:30pm SW 28 39 - - - - 10 Partly cloudy - 12.4 1007.2 6.4
01/04:23pm WSW 25 38 - - - - 10 Partly cloudy - 12.8 1007.3 6.4
01/04:13pm W 22 32 - - - - 10 Partly cloudy - 13.1 1007.1 6.4
01/04:00pm WSW 21 28 - - - - 10 Partly cloudy - 13.8 1007.1 6.4
01/03:38pm W 16 28 - - - - 10 Partly cloudy - 12.9 1007.2 6.0
01/03:30pm W 16 23 - - - - 10 Partly cloudy - 13.2 1007.3 6.0
01/03:00pm WSW 13 21 - - - - 10 Mostly cloudy Showers 11.8 1007.4 6.0
01/02:38pm WSW 15 25 - - - - 10 Partly cloudy - 12.6 1007.3 5.6
01/02:30pm WSW 14 23 - - - - 10 Partly cloudy - 12.3 1007.2 5.6
01/02:00pm WSW 16 24 - - - - 10 Partly cloudy - 12.5 1007.3 5.6
01/01:48pm WSW 18 25 - - - - 10 Partly cloudy - 13.0 1007.2 5.6
01/01:35pm WSW 19 31 - - - - 5 Partly cloudy - 12.4 1007.1 5.6
01/01:30pm WSW 18 25 - - - - 5 Partly cloudy - 12.5 1007.1 5.2
01/01:14pm WSW 22 29 - - - - 5 Partly cloudy - 12.7 1006.9 3.8
01/01:04pm WSW 19 30 - - - - 3 Partly cloudy - 12.6 1006.9 3.2
01/01:00pm W 18 26 - - - - 2 Partly cloudy - 12.8 1006.9 2.8
01/12:56pm W 18 26 - - - - 4 Partly cloudy - 13.4 1006.9 2.0
01/12:44pm W 21 31 - - - - 5 Partly cloudy - 14.0 1006.7 0.6
01/12:43pm W 22 31 - - - - 5 Partly cloudy - 14.0 1006.6 0.6
01/12:34pm WNW 18 28 - - - - 10 Partly cloudy - 15.4 1006.6 0.0
01/12:30pm WNW 18 23 - - - - 10 Partly cloudy - 16.2 1006.5 0.0
01/12:00pm NW 16 23 - - - - 10 Cloudy - 16.9 1006.7 0.0
01/11:30am WNW 16 21 - - - - 10 Partly cloudy - 17.0 1007.1 0.0
01/11:00am NW 14 17 - - - - 10 Partly cloudy - 16.1 1007.3 0.0
01/10:30am NW 11 14 - - - - 10 Partly cloudy - 16.7 1007.7 0.0
01/10:00am WNW 10 14 - - - - 10 Partly cloudy - 15.3 1008.0 0.0
01/09:30am WNW 8 11 - - - - 10 Partly cloudy - 15.2 1007.9 0.0
01/09:00am W 7 9 - - - - 10 Cloudy - 15.1 1008.0 0.8
01/08:36am W 6 7 - - - - 10 Partly cloudy - 14.3 1007.9 0.8
01/08:30am W 5 7 - - - - 10 Partly cloudy - 14.3 1008.0 0.8
01/08:17am W 5 7 - - - - 10 Partly cloudy - 14.3 1008.0 0.8
01/08:16am W 5 7 - - - - 10 Partly cloudy - 14.2 1008.0 0.8
01/08:00am W 5 7 - - - - 10 Partly cloudy - 14.2 1008.0 0.8
01/07:46am W 5 7 - - - - 10 Partly cloudy - 14.1 1008.1 0.8
01/07:30am W 6 8 - - - - 10 Partly cloudy - 14.2 1008.0 0.8
01/07:18am WSW 7 9 - - - - 10 Partly cloudy - 14.1 1008.0 0.8
01/07:00am WSW 7 10 - - - - 10 Partly cloudy - 14.2 1008.0 0.8
01/06:59am WSW 7 10 - - - - 10 Partly cloudy - 14.2 1008.0 0.8
01/06:30am N 4 5 - - - - 3 Partly cloudy - 13.9 1008.0 0.8
01/06:08am N 1 5 - - - - 5 Partly cloudy - 14.0 1007.9 0.0
01/06:00am CALM 0 0 - - - - 4 Cloudy - 14.0 1007.8 0.0
01/05:45am CALM 0 0 - - - - 5 Partly cloudy - 13.9 1007.9 0.0
01/05:31am CALM 0 0 - - - - 6 Partly cloudy - 13.8 1008.0 0.0
01/05:30am CALM 0 0 - - - - 6 Partly cloudy - 13.8 1008.0 0.0
01/05:00am CALM 0 0 - - - - 6 Cloudy - 13.8 1008.2 0.0
01/04:38am N 2 3 - - - - 6 Cloudy - 13.8 1008.2 0.0
01/04:30am N 3 4 - - - - 6 Cloudy - 13.9 1008.2 0.0
01/04:00am N 2 4 - - - - 5 Partly cloudy - 13.7 1008.2 0.0
01/03:45am N 3 4 - - - - 5 Partly cloudy - 13.6 1008.4 0.0
01/03:30am N 5 6 - - - - 7 Partly cloudy - 13.6 1008.7 0.0
01/03:00am NW 5 5 - - - - 8 Cloudy Recent precip. 13.6 1008.7 0.0
01/02:30am NNE 4 5 - - - - 9 Partly cloudy - 13.8 1008.8 0.0
01/02:00am NNW 4 4 - - - - 9 Partly cloudy - 14.0 1009.1 0.0
01/01:30am N 3 5 - - - - 10 Partly cloudy - 14.1 1009.3 0.0
01/01:00am CALM 0 0 - - - - 10 Partly cloudy - 14.2 1009.4 0.0
01/12:46am CALM 0 0 - - - - 9 Partly cloudy - 14.3 1009.7 0.0
01/12:30am CALM 0 0 - - - - 5 Partly cloudy - 14.4 1009.8 0.0
01/12:06am N 3 3 - - - - 5 Partly cloudy - 14.3 1010.0 0.0
01/12:00am N 3 4 - - - - 6 Cloudy - 14.5 1010.1 0.0
 
Date/Time
EDT
Wind Sea
Height
m
Swell Vis
km
Cloud Weather Temp
°C
Press
MSL
hPa
Rain since
9am
mm
Dir  Spd
kts
Gust
kts
Height
m
Period
s
Dir
28/11:47pm N 3 3 - - - - 8 Partly cloudy - 14.4 1010.1 0.0
28/11:44pm N 3 4 - - - - 7 Partly cloudy - 14.4 1010.2 0.0
28/11:34pm N 4 5 - - - - 5 Partly cloudy - 14.5 1010.3 0.0
28/11:30pm N 4 6 - - - - 7 Partly cloudy - 14.7 1010.3 0.0
28/11:20pm NW 1 5 - - - - 7 Partly cloudy - 14.5 1010.3 0.0
28/11:00pm NW 5 5 - - - - 8 Partly cloudy - 14.7 1010.5 0.0
28/10:30pm NNW 4 5 - - - - 9 Partly cloudy - 14.7 1010.6 0.0
28/10:00pm NNW 4 5 - - - - 8 Partly cloudy - 15.0 1010.8 0.0
28/09:30pm NNW 1 3 - - - - 10 Partly cloudy - 15.4 1010.7 0.0
28/09:00pm W 2 5 - - - - 10 Cloudy - 16.0 1010.9 0.0
28/08:30pm W 3 4 - - - - 10 Cloudy - 15.7 1010.7 0.0
28/08:00pm N 1 4 - - - - 10 Partly cloudy - 16.4 1010.6 0.0
28/07:30pm CALM 0 0 - - - - 10 Partly cloudy - 16.9 1010.5 0.0
28/07:00pm SSW 5 6 - - - - 10 Cloudy - 17.2 1010.4 0.0
28/06:30pm SW 6 8 - - - - 10 Partly cloudy - 17.6 1010.4 0.0
28/06:00pm SSW 9 11 - - - - 10 Partly cloudy - 18.2 1010.4 0.0
28/05:30pm WSW 8 11 - - - - 10 Partly cloudy - 18.0 1010.5 0.0
28/05:00pm WSW 9 12 - - - - 10 Partly cloudy - 18.6 1010.7 0.0
28/04:30pm WSW 8 13 - - - - 10 Cloudy - 19.3 1010.8 0.0
28/04:00pm WSW 9 11 - - - - 10 Cloudy - 19.4 1011.0 0.0
28/03:30pm SSW 8 10 - - - - 10 Partly cloudy - 19.6 1011.4 0.0
28/03:00pm SW 7 9 - - - - 10 Partly cloudy - 19.4 1011.6 0.0
28/02:30pm SW 5 8 - - - - 10 Cloudy - 19.9 1012.0 0.0
28/02:00pm W 7 9 - - - - 10 Cloudy - 19.0 1012.4 0.0
28/01:30pm W 8 11 - - - - 10 Cloudy - 19.6 1012.8 0.0
28/01:00pm WSW 6 8 - - - - 10 Cloudy - 18.1 1013.2 0.0
28/12:30pm W 6 9 - - - - 10 Cloudy - 17.6 1013.5 0.0
28/12:00pm W 6 8 - - - - 10 Cloudy - 17.9 1013.8 0.0
28/11:30am W 7 8 - - - - 10 Cloudy - 17.8 1013.9 0.0
28/11:00am SSW 3 6 - - - - 10 Cloudy - 18.3 1013.8 0.0
28/10:30am NNW 1 3 - - - - 10 - - 17.2 1013.8 0.0
28/10:00am W 4 5 - - - - 10 - - 16.6 1013.9 0.0
28/09:30am NNW 3 4 - - - - 10 - - 17.2 1013.8 0.0
28/09:00am E 2 4 - - - - 10 Mostly cloudy - 16.2 1013.6 0.0
28/08:30am NE 3 5 - - - - 10 - - 14.6 1013.4 0.0
28/08:00am NNE 2 4 - - - - 10 - - 12.6 1013.5 0.0
28/07:30am NNE 4 5 - - - - 10 - - 11.7 1013.3 0.0
28/07:00am NNE 2 4 - - - - 10 Partly cloudy - 11.7 1013.4 0.0
28/06:30am CALM 0 0 - - - - 10 Cloudy - 12.1 1013.1 0.0
28/06:00am NNE 1 4 - - - - 10 Cloudy - 12.4 1013.0 0.0
28/05:30am NNE 3 4 - - - - 10 Cloudy - 12.6 1013.1 0.0
28/05:00am NE 4 5 - - - - 10 Cloudy - 12.5 1013.1 0.0
28/04:30am N 3 4 - - - - 10 Cloudy - 12.5 1013.3 0.0
28/04:00am N 4 6 - - - - 10 Cloudy - 12.4 1013.4 0.0
28/03:30am NNE 5 6 - - - - 10 Partly cloudy - 12.1 1013.3 0.0
28/03:00am N 3 4 - - - - 10 Cloudy - 12.1 1013.6 0.0
28/02:48am N 4 5 - - - - 10 Partly cloudy - 12.1 1013.6 0.0
28/02:37am N 4 6 - - - - 5 Partly cloudy - 12.1 1013.7 0.0
28/02:30am NNW 4 5 - - - - 10 Partly cloudy - 12.1 1013.7 0.0
28/02:00am NNW 5 7 - - - - 10 Partly cloudy - 11.9 1014.0 0.0
28/01:30am N 4 5 - - - - 10 - - 12.2 1013.9 0.0
28/01:00am NW 5 6 - - - - 8 - - 12.3 1013.9 0.0
28/12:30am ENE 3 4 - - - - 9 - - 12.4 1013.7 0.0
28/12:00am E 5 6 - - - - 10 Cloudy - 12.9 1013.6 0.0
 
Date/Time
EDT
Wind Sea
Height
m
Swell Vis
km
Cloud Weather Temp
°C
Press
MSL
hPa
Rain since
9am
mm
Dir  Spd
kts
Gust
kts
Height
m
Period
s
Dir
27/11:49pm ENE 5 10 - - - - 10 - - 12.8 1013.7 0.0
27/11:30pm N 2 5 - - - - 5 - - 13.2 1014.1 0.0
27/11:00pm WNW 5 7 - - - - 4 Partly cloudy - 13.7 1014.4 0.0
27/10:58pm WNW 5 6 - - - - 5 Partly cloudy - 13.6 1014.4 0.0
27/10:30pm NNW 3 5 - - - - 10 Partly cloudy - 13.4 1014.4 0.0
27/10:00pm CALM 0 0 - - - - 10 - - 13.9 1014.5 0.0
27/09:30pm CALM 0 0 - - - - 10 - - 14.0 1014.6 0.0
27/09:00pm CALM 0 0 - - - - 10 Cloudy - 14.3 1014.7 0.0
27/08:30pm CALM 0 0 - - - - 10 - - 14.5 1014.8 0.0
27/08:00pm NNW 4 4 - - - - 10 - - 15.0 1014.7 0.0
27/07:30pm CALM 0 0 - - - - 10 - - 15.7 1014.5 0.0
27/07:00pm SW 6 9 - - - - 10 Partly cloudy - 16.0 1014.1 0.0
27/06:30pm WNW 4 5 - - - - 10 - - 16.4 1014.5 0.0
27/06:00pm W 6 8 - - - - 10 Partly cloudy - 16.9 1014.3 0.0
27/05:30pm SW 6 9 - - - - 10 - - 17.4 1014.1 0.0
27/05:00pm WSW 7 9 - - - - 10 - - 17.8 1013.9 0.0
27/04:30pm SW 7 11 - - - - 10 - - 18.4 1013.8 0.0
27/04:00pm W 8 11 - - - - 10 - - 17.7 1014.0 0.0
27/03:30pm WSW 8 11 - - - - 10 - - 18.1 1014.1 0.0
27/03:00pm W 7 11 - - - - 10 Partly cloudy - 18.7 1014.4 0.0
27/02:30pm WNW 7 9 - - - - 10 - - 18.8 1014.5 0.0
27/02:00pm W 7 10 - - - - 10 - - 18.3 1014.5 0.0
27/01:30pm W 7 9 - - - - 10 - - 18.3 1014.3 0.0
27/01:00pm WNW 7 11 - - - - 10 - - 19.9 1014.4 0.0
27/12:30pm WSW 6 8 - - - - 10 - - 19.0 1014.7 0.0

Other formats

Comma delimited format used in spreadsheet applications
http://www.bom.gov.au/fwo/IDT60701/IDT60701.94956.axf

JavaScript Object Notation format (JSON) in row-major order
http://www.bom.gov.au/fwo/IDT60701/IDT60701.94956.json

Data quality

Most of these data are generated automatically and are frequently updated. Quality checks on data are not normally performed. It is possible for incorrect values to appear. Refer to information at About Latest Weather Observations and please check the disclaimer before using these data.